Hovedside
METAR-TAF:

METAR-TAF

Lufthavner :

London City lufthavn

London, England

breddegrad: 51-30N, lengdegrad: 000-03E, høyde over havet: 5 m

Gjeldene værobservasjon

Denne rapporten ble laget for 10 minutter siden, klokken 03:50 UTC
Vind 11 kt fra Vest-sørvest
Temperatur 6°C
Luftfuktighet 87%
Trykk 1012 hPa
Sikt 10 km eller mer

METAR: EGLC 170350Z AUTO 25011KT 9999 NCD 06/04 Q1012

Tid: 04:00 (04:00 UTC)

Varsel

Denne rapporten ble laget for 2 timer og 3 minutter siden, klokken 01:57 UTC
Varsel gyldig fra 17. klokken 03 UTC til 17. klokken 12 UTC
Vind 10 kt fra Vest-sørvest
Sikt 10 km eller mer
Spredte skyer i en høyde av 2500 ft
Sannsynlighet 30%
fra 17. klokken 06 UTC til 17. klokken 09 UTC
Sikt: 7000 m

TAF: EGLC 170157Z 1703/1712 25010KT 9999 SCT025 PROB30 1706/1709 7000

Værobservasjoner og værvarsel for over 4000 flyplasser (METAR- og TAF-rapporter).

Tilgjengelige stasjoner er representert av de røde og gule prikkene på kartet.

Hold musepekeren over prikken for å se navnet på stasjonen.

Klikk så for å se værobservasjoner og -varsler.

For å forandre kartet kan du klikke på den grønne knappen med svart kryss for å zoome inn, på den grønne knappen med strek for å zoome ut, eller på de grønne pilene for å se tilstøtende kart.


METAR-TAF: